Belvedere, Italy

06:44 PM CET del 20 Febbraio 2017 (GMT +0100)
Rome | | Change Station

Alt. 623 ft 42.09 °N, 12.51 °E | Updated 4 minutes ago

Sereno
Sereno
51.2 °F
Sembra 51.2 °F
N
3.1
Vento Variabile Vento da NNO
Gusts 4.0 mph

Oggi
Massima -- | Minima -- °F
--% Possibilità di precip.
Ieri
Massima -- | Minima -- °F
Precip. -- in
Pressione 30.15 in
Visibilità -9999.0 miglia
Nuvole
Punto di rugiada 18 °F
Umidità 27%
Piovosità 0.00 in
Spessore del manto nevoso Non disponibile.
6:58 AM 5:48 PM
Luna calante, 32% visible
METAR LIRG 201655Z 35003KT CAVOK 11/00 Q1021 RMK FEW FEW070 MON NE LIB NC VIS MIN 9999 BLU
Pressione 30.15 in
Visibilità -9999.0 miglia
Nuvole
Punto di rugiada 18 °F
Umidità 27%
Piovosità 0.00 in
Spessore del manto nevoso Non disponibile.
6:58 AM 5:48 PM
Luna calante, 32% visible
METAR LIRG 201655Z 35003KT CAVOK 11/00 Q1021 RMK FEW FEW070 MON NE LIB NC VIS MIN 9999 BLU

Get Your Daily Forecast Email!

Thanks for signing up!

Be on the lookout for a verification email in your inbox.

You'll start receiving the daily forecast at 8 AM.

×

10-Day Weather Forecast

×

Almanac

Astronomia

Feb. 20, 2017 Alba Tramonto
Ora attuale
Crepuscolo civile
Crepuscolo nautico
Crepuscolo astronomico
Luna
Estensione della luce visibile
Lunghezza del giorno
Tomorrow will be .
, % of the Moon is Illuminated

Gli estremi di oggi

Massime Regione Minime Regione

Community

WunderPhotos

Upload Photos

1,962,540 foto caricate!

WunderBlog® & News

Nearby

Qualità dell'aria

  Qualità dell'aria Indice AQ Inquinante
Not available.

Profondità neve

Stazione Profondità Altitudine

Attività sismica

Città  Distanza Mag. Data & Ora
Minimo Magnitudo Mostrato è 2.5.

Temperature delle acque costiere

Località Temperatura

Stations

Stazioni meteo nelle vicinanze

Ubicazione della stazione Temp. Raffreddamento del vento Punto di rugiada Umidità Vento Precip. Alt. Aggiornato Tipo